EBLG

Liège Airport

Liège, Belgium
METAR EBLG 232150Z 07008KT CAVOK M02/M10 Q1018 NOSIG
Observed Flight Rules
Feb-23 @ 21:50 UTC (44 minutes ago) Visual Flight Rules
Wind Visibility Clouds
70° at 8 knots 10,000+ meters
  • Clear skies
Temperatures Readings
Current -2°C / 28°F
Dewpoint -10°C / 14°F
Humidity 55%
Altimeter 30.06" Hg
Pressure 1018 hPa
Elevation 178
METAR EBLG 232150Z 07008KT CAVOK M02/M10 Q1018 NOSIG
Observed Flight Rules
Feb-23 @ 21:50 UTC
(44 minutes ago)
VFR
Wind Visibility
70° at 8 knots 10,000+ meters
Clouds
  • Clear skies
Temperature Dewpoint
-2°C / 28°F -10°C / 14°F
Humidity Altimeter Pressure
55% 30.06" Hg 1018 hPa